createdAt,value
2018-12-17T04:01:02.369Z,46.00
2018-12-17T04:02:02.700Z,49.10
2018-12-17T04:03:01.454Z,51.90
2018-12-17T04:04:00.928Z,49.60
2018-12-17T04:05:01.087Z,52.30
2018-12-17T04:06:01.212Z,47.80
2018-12-17T04:07:01.415Z,48.80
2018-12-17T04:08:01.583Z,51.00
2018-12-17T04:09:01.821Z,46.10
2018-12-17T04:10:01.851Z,51.00
2018-12-17T04:11:02.056Z,47.20
2018-12-17T04:12:02.155Z,47.50
2018-12-17T04:13:02.373Z,46.70
2018-12-17T04:14:02.509Z,48.50
2018-12-17T04:15:02.667Z,45.70
2018-12-17T04:16:02.808Z,45.30
2018-12-17T04:17:02.939Z,46.10
2018-12-17T04:18:03.207Z,41.30
2018-12-17T04:19:04.202Z,38.90
2018-12-17T04:20:03.545Z,31.40
2018-12-17T04:21:03.823Z,32.30
2018-12-17T04:22:03.931Z,31.40
2018-12-17T04:23:04.048Z,31.90
2018-12-17T04:24:04.270Z,33.50
2018-12-17T04:25:04.426Z,31.00
2018-12-17T04:26:04.644Z,32.60
2018-12-17T04:27:04.648Z,32.10
2018-12-17T04:28:04.843Z,39.60
2018-12-17T04:29:07.047Z,47.50
2018-12-17T04:30:05.173Z,46.60
2018-12-17T04:31:05.251Z,46.30
2018-12-17T04:32:05.439Z,47.20
2018-12-17T04:33:05.623Z,48.10
2018-12-17T04:34:05.722Z,48.70
2018-12-17T04:35:05.914Z,51.10
2018-12-17T04:36:06.086Z,48.50
2018-12-17T04:37:06.232Z,47.30
2018-12-17T04:38:06.315Z,45.90
2018-12-17T04:39:06.536Z,45.00
2018-12-17T04:40:06.716Z,45.20
2018-12-17T04:41:06.842Z,43.30
2018-12-17T04:42:06.970Z,44.80
2018-12-17T04:43:07.127Z,44.50
2018-12-17T04:44:07.322Z,41.80
2018-12-17T04:45:07.510Z,43.40
2018-12-17T04:46:07.662Z,53.60
2018-12-17T04:47:07.785Z,46.60
2018-12-17T04:48:07.969Z,52.90
2018-12-17T04:49:08.052Z,47.60
2018-12-17T04:50:08.226Z,44.90
2018-12-17T04:51:08.391Z,45.60
2018-12-17T04:52:08.681Z,45.60
2018-12-17T04:53:08.805Z,45.30
2018-12-17T04:54:08.911Z,46.70
2018-12-17T04:55:09.069Z,46.70
2018-12-17T04:56:09.228Z,46.40
2018-12-17T04:57:09.321Z,46.60
2018-12-17T04:58:09.515Z,46.30
2018-12-17T04:59:14.568Z,42.30
2018-12-17T05:00:10.144Z,43.80
2018-12-17T05:01:10.054Z,41.50
2018-12-17T05:02:10.243Z,44.10
2018-12-17T05:03:10.353Z,44.70
2018-12-17T05:04:10.402Z,42.90
2018-12-17T05:05:10.624Z,46.00
2018-12-17T05:06:11.728Z,47.60
2018-12-17T05:07:10.994Z,44.50
2018-12-17T05:08:11.129Z,44.10
2018-12-17T05:09:11.375Z,43.20
2018-12-17T05:10:11.443Z,43.80
2018-12-17T05:11:11.662Z,51.50
2018-12-17T05:12:11.786Z,48.40
2018-12-17T05:13:11.966Z,49.80
2018-12-17T05:14:12.176Z,47.50
2018-12-17T05:15:12.220Z,43.00
2018-12-17T05:16:12.399Z,42.30
2018-12-17T05:17:12.561Z,44.40
2018-12-17T05:18:12.700Z,46.80
2018-12-17T05:19:12.845Z,46.80
2018-12-17T05:20:13.023Z,46.40
2018-12-17T05:21:13.156Z,45.70
2018-12-17T05:22:13.315Z,42.80
2018-12-17T05:23:13.527Z,44.50
2018-12-17T05:24:13.851Z,48.90
2018-12-17T05:25:13.894Z,42.50
2018-12-17T05:26:14.061Z,43.70
2018-12-17T05:27:14.142Z,43.20
2018-12-17T05:28:14.334Z,44.10
2018-12-17T05:29:21.410Z,46.00
2018-12-17T05:30:14.644Z,43.50
2018-12-17T05:31:14.856Z,47.90
2018-12-17T05:32:14.970Z,48.00
2018-12-17T05:33:15.091Z,47.50
2018-12-17T05:34:15.345Z,142.20
2018-12-17T05:35:15.525Z,75.90
2018-12-17T05:36:15.713Z,60.40
2018-12-17T05:37:15.749Z,50.10
2018-12-17T05:38:15.968Z,42.00
2018-12-17T05:39:16.052Z,41.20
2018-12-17T05:40:16.319Z,57.20
2018-12-17T05:41:16.493Z,51.60
2018-12-17T05:42:16.606Z,48.40
2018-12-17T05:43:16.772Z,44.90
2018-12-17T05:44:16.915Z,47.00
2018-12-17T05:45:17.045Z,47.60
2018-12-17T05:46:17.212Z,47.40
2018-12-17T05:47:17.372Z,47.40
2018-12-17T05:48:17.539Z,63.30
2018-12-17T05:49:17.763Z,49.40
2018-12-17T05:50:17.880Z,49.90
2018-12-17T05:51:18.012Z,47.50
2018-12-17T05:52:18.337Z,44.20
2018-12-17T05:53:18.377Z,43.10
2018-12-17T05:54:18.446Z,49.00
2018-12-17T05:55:18.710Z,59.40
2018-12-17T05:56:18.809Z,57.30
2018-12-17T05:57:19.117Z,62.00
2018-12-17T05:58:19.154Z,74.00
2018-12-17T05:59:19.293Z,54.40
2018-12-17T06:00:19.480Z,45.90
2018-12-17T06:01:19.681Z,47.20
2018-12-17T06:02:19.806Z,42.00
2018-12-17T06:03:19.956Z,46.20
2018-12-17T06:04:20.103Z,48.40
2018-12-17T06:05:20.554Z,39.40
2018-12-17T06:06:20.472Z,48.30
2018-12-17T06:07:20.689Z,63.90
2018-12-17T06:08:20.827Z,49.10
2018-12-17T06:09:20.919Z,34.90
2018-12-17T06:10:21.181Z,25.20
2018-12-17T06:11:21.307Z,23.40
2018-12-17T06:12:21.467Z,25.20
2018-12-17T06:13:21.609Z,33.30
2018-12-17T06:14:21.790Z,36.20
2018-12-17T06:15:21.992Z,42.80
2018-12-17T06:16:22.056Z,41.40
2018-12-17T06:17:22.265Z,35.60
2018-12-17T06:18:22.390Z,34.10
2018-12-17T06:19:22.598Z,32.50
2018-12-17T06:20:22.775Z,39.30
2018-12-17T06:21:22.957Z,86.10
2018-12-17T06:22:23.018Z,53.10
2018-12-17T06:23:23.244Z,86.20
2018-12-17T06:24:23.467Z,303.60
2018-12-17T06:25:23.600Z,70.40
2018-12-17T06:26:23.774Z,43.20
2018-12-17T06:27:23.931Z,36.50
2018-12-17T06:28:24.085Z,37.50
2018-12-17T06:29:24.282Z,34.80
2018-12-17T06:30:24.326Z,36.70
2018-12-17T06:31:24.588Z,34.30
2018-12-17T06:32:24.695Z,30.10
2018-12-17T06:33:24.846Z,26.90
2018-12-17T06:34:25.045Z,27.60
2018-12-17T06:35:25.186Z,27.80
2018-12-17T06:36:25.381Z,19.40
2018-12-17T06:37:25.505Z,22.00
2018-12-17T06:38:25.693Z,21.80
2018-12-17T06:39:25.847Z,19.20
2018-12-17T06:40:26.026Z,20.40
2018-12-17T06:41:26.137Z,19.10
2018-12-17T06:42:26.404Z,37.20
2018-12-17T06:43:26.517Z,30.10
2018-12-17T06:44:26.605Z,31.90
2018-12-17T06:45:26.765Z,31.50
2018-12-17T06:46:26.943Z,35.20
2018-12-17T06:47:27.138Z,31.90
2018-12-17T06:48:27.211Z,30.60
2018-12-17T06:49:27.378Z,32.10
2018-12-17T06:50:27.529Z,29.80
2018-12-17T06:51:27.710Z,30.00
2018-12-17T06:52:27.880Z,33.00
2018-12-17T06:53:28.041Z,28.10
2018-12-17T06:54:28.261Z,33.30
2018-12-17T06:55:28.321Z,30.50
2018-12-17T06:56:28.545Z,32.10
2018-12-17T06:57:28.791Z,31.40
2018-12-17T06:58:28.807Z,33.80
2018-12-17T06:59:29.073Z,35.30
2018-12-17T07:00:29.224Z,32.80
2018-12-17T07:01:29.330Z,31.90
2018-12-17T07:02:29.465Z,30.20
2018-12-17T07:03:29.655Z,33.50
2018-12-17T07:04:29.815Z,34.40
2018-12-17T07:05:29.948Z,33.40
2018-12-17T07:08:14.629Z,35.70
2018-12-17T07:09:15.149Z,33.50
2018-12-17T07:10:14.810Z,32.70
2018-12-17T07:11:16.700Z,31.70
2018-12-17T07:12:25.058Z,30.00
2018-12-17T07:13:15.371Z,26.20
2018-12-17T07:14:16.074Z,26.20
2018-12-17T07:15:14.067Z,26.50
2018-12-17T07:16:13.836Z,33.50
2018-12-17T07:17:13.861Z,30.60
2018-12-17T07:18:14.095Z,30.00
2018-12-17T07:19:14.193Z,29.40
2018-12-17T07:20:14.394Z,23.80
2018-12-17T07:21:14.533Z,24.30
2018-12-17T07:22:14.671Z,22.40
2018-12-17T07:23:14.849Z,24.00
2018-12-17T07:24:15.021Z,21.10
2018-12-17T07:25:15.134Z,19.80
2018-12-17T07:26:15.341Z,18.70
2018-12-17T07:27:15.437Z,20.20
2018-12-17T07:28:15.687Z,19.90
2018-12-17T07:29:15.714Z,21.80
2018-12-17T07:30:15.893Z,20.90
2018-12-17T07:31:16.145Z,20.70
2018-12-17T07:32:16.288Z,23.90
2018-12-17T07:33:16.432Z,24.80
2018-12-17T07:34:16.548Z,24.50
2018-12-17T07:35:16.712Z,21.20
2018-12-17T07:36:16.909Z,22.20
2018-12-17T07:37:17.110Z,20.30
2018-12-17T07:38:17.267Z,20.50
2018-12-17T07:39:17.309Z,21.10
2018-12-17T07:40:17.519Z,21.90
2018-12-17T07:41:17.687Z,21.70
2018-12-17T07:42:17.897Z,22.70
2018-12-17T07:43:17.984Z,21.70
2018-12-17T07:44:18.213Z,20.80
2018-12-17T07:45:18.284Z,21.30
2018-12-17T07:46:18.482Z,20.90
2018-12-17T07:47:18.682Z,19.90
2018-12-17T07:48:18.869Z,20.50
2018-12-17T07:49:19.006Z,20.10
2018-12-17T07:50:19.131Z,20.10
2018-12-17T07:51:19.323Z,19.70
2018-12-17T07:52:19.441Z,19.80
2018-12-17T07:53:19.636Z,19.90
2018-12-17T07:54:19.770Z,23.10
2018-12-17T07:55:19.966Z,22.80
2018-12-17T07:56:20.067Z,26.30
2018-12-17T07:57:20.295Z,23.90
2018-12-17T07:58:21.027Z,29.40
2018-12-17T07:59:20.627Z,19.70
2018-12-17T08:00:31.921Z,20.20
2018-12-17T08:01:22.428Z,20.70
2018-12-17T08:02:22.067Z,19.40
2018-12-17T08:03:21.326Z,17.20
2018-12-17T08:04:21.282Z,17.00
2018-12-17T08:05:21.488Z,22.10
2018-12-17T08:06:21.642Z,19.10
2018-12-17T08:07:22.473Z,17.90
2018-12-17T08:08:22.014Z,19.00
2018-12-17T08:09:22.119Z,18.70
2018-12-17T08:10:22.337Z,16.30
2018-12-17T08:11:22.503Z,17.60
2018-12-17T08:12:22.612Z,18.90
2018-12-17T08:13:22.807Z,22.50
2018-12-17T08:14:22.967Z,23.20
2018-12-17T08:15:23.140Z,21.70
2018-12-17T08:16:23.355Z,19.70
2018-12-17T08:17:23.448Z,20.20
2018-12-17T08:18:23.591Z,17.50
2018-12-17T08:19:23.810Z,17.70
2018-12-17T08:20:23.910Z,19.30
2018-12-17T08:21:24.026Z,20.10
2018-12-17T08:22:24.245Z,18.60
2018-12-17T08:23:24.401Z,19.40
2018-12-17T08:24:24.544Z,24.10
2018-12-17T08:25:24.672Z,20.80
2018-12-17T08:26:24.799Z,19.50
2018-12-17T08:27:24.993Z,25.00
2018-12-17T08:28:25.240Z,22.10
2018-12-17T08:29:25.300Z,27.70
2018-12-17T08:30:25.537Z,22.10
2018-12-17T08:31:25.715Z,19.00
2018-12-17T08:32:25.824Z,19.90
2018-12-17T08:33:26.052Z,30.90
2018-12-17T08:34:27.124Z,20.40
2018-12-17T08:35:26.286Z,22.00
2018-12-17T08:36:26.500Z,20.50
2018-12-17T08:37:26.621Z,20.30
2018-12-17T08:38:26.875Z,23.00
2018-12-17T08:39:26.934Z,23.90
2018-12-17T08:40:27.187Z,30.50
2018-12-17T08:41:27.324Z,33.20
2018-12-17T08:42:27.433Z,29.10
2018-12-17T08:43:27.617Z,23.40
2018-12-17T08:44:27.803Z,24.90
2018-12-17T08:45:27.941Z,47.00
2018-12-17T08:46:28.066Z,44.30
2018-12-17T08:47:28.294Z,54.40
2018-12-17T08:48:28.390Z,25.10
2018-12-17T08:49:28.673Z,28.10
2018-12-17T08:50:28.713Z,21.90
2018-12-17T08:51:28.873Z,38.20
2018-12-17T08:52:29.052Z,36.50
2018-12-17T08:53:29.247Z,28.40
2018-12-17T08:54:29.424Z,77.90
2018-12-17T08:55:29.610Z,45.50
2018-12-17T08:56:29.775Z,86.80
2018-12-17T08:57:30.046Z,121.90
2018-12-17T08:58:30.093Z,379.30
2018-12-17T08:59:30.292Z,217.20
2018-12-17T09:00:31.134Z,136.60
2018-12-17T09:01:31.283Z,80.60
2018-12-17T09:02:31.573Z,82.40
2018-12-17T09:03:34.590Z,46.40
2018-12-17T09:05:26.728Z,58.60
2018-12-17T09:06:03.713Z,93.00
2018-12-17T09:06:44.794Z,108.00
2018-12-17T09:07:43.610Z,23.10
2018-12-17T09:08:37.321Z,23.50
2018-12-17T09:09:35.352Z,53.80
2018-12-17T09:10:43.220Z,24.20
2018-12-17T09:11:35.158Z,21.80
2018-12-17T11:03:28.748Z,30.00
2018-12-17T11:04:29.465Z,16.80
2018-12-17T11:05:28.739Z,17.80
2018-12-17T11:06:30.572Z,17.70
2018-12-17T11:07:30.063Z,18.70
2018-12-17T11:08:27.587Z,17.00
2018-12-17T11:09:27.744Z,17.70
2018-12-17T11:10:27.854Z,17.30
2018-12-17T11:11:28.049Z,18.00
2018-12-17T11:12:28.260Z,17.60
2018-12-17T11:13:28.574Z,18.50
2018-12-17T11:18:17.911Z,17.00
2018-12-17T11:19:20.541Z,16.40
2018-12-17T11:20:21.145Z,15.80
2018-12-17T11:38:57.225Z,16.80
2018-12-17T11:39:56.905Z,14.00
2018-12-17T11:43:17.778Z,12.80
2018-12-17T11:45:18.812Z,11.40
2018-12-17T11:46:19.606Z,12.00
2018-12-17T11:59:50.825Z,13.60
2018-12-17T12:02:49.113Z,11.00
2018-12-17T12:04:05.260Z,11.50
2018-12-17T12:07:27.340Z,10.00
2018-12-17T12:08:25.865Z,10.30
2018-12-17T12:09:13.514Z,11.00
2018-12-17T12:10:14.988Z,10.70
2018-12-17T12:11:13.868Z,11.10
2018-12-17T12:12:14.315Z,10.80
2018-12-17T12:13:14.868Z,10.70
2018-12-17T12:14:24.601Z,11.30
2018-12-17T12:15:15.909Z,10.20
2018-12-17T12:16:15.032Z,10.40
2018-12-17T12:17:15.297Z,14.40
2018-12-17T12:18:16.693Z,10.40
2018-12-17T12:19:16.935Z,10.60
2018-12-17T12:20:20.982Z,15.70
2018-12-17T12:21:16.075Z,11.20
2018-12-17T12:22:24.493Z,12.50
2018-12-17T12:23:15.082Z,10.90
2018-12-17T12:27:49.586Z,11.80
2018-12-17T12:28:48.543Z,10.80
2018-12-17T13:00:24.694Z,10.90
2018-12-17T13:07:51.022Z,11.30
2018-12-17T13:08:52.952Z,10.70
2018-12-17T13:09:52.000Z,10.20
2018-12-17T13:10:52.541Z,10.20
2018-12-17T13:11:52.584Z,9.90
2018-12-17T13:12:56.789Z,9.80
2018-12-17T13:13:52.607Z,10.30
2018-12-17T13:49:09.357Z,9.70
2018-12-17T14:33:08.395Z,7.00
2018-12-17T14:35:13.265Z,6.80
2018-12-17T14:36:09.108Z,6.70
2018-12-17T14:38:48.357Z,6.90
2018-12-17T14:40:49.725Z,7.00
2018-12-17T14:41:58.457Z,7.00
2018-12-17T14:42:49.946Z,7.30
2018-12-17T15:13:56.067Z,9.10
2018-12-17T15:14:22.212Z,9.20
2018-12-17T15:15:36.113Z,9.20
2018-12-17T15:17:56.301Z,10.30
2018-12-17T15:18:55.807Z,10.50
2018-12-17T15:20:08.762Z,10.40
2018-12-17T15:20:56.730Z,11.00
2018-12-17T15:22:00.116Z,11.20
2018-12-17T15:53:05.558Z,16.70
2018-12-17T15:54:03.473Z,16.00
2018-12-17T16:28:41.811Z,16.90
2018-12-17T16:29:40.967Z,16.20
2018-12-17T16:30:41.591Z,16.80
2018-12-17T16:31:41.082Z,16.30
2018-12-17T16:32:41.203Z,16.00
2018-12-17T16:33:41.420Z,15.90
2018-12-17T16:34:41.690Z,17.40
2018-12-17T16:35:41.741Z,16.40
2018-12-17T16:36:41.902Z,16.90
2018-12-17T16:37:42.140Z,16.20
2018-12-17T16:38:42.250Z,16.60
2018-12-17T16:39:42.358Z,16.20
2018-12-17T16:40:42.502Z,16.20
2018-12-17T16:41:43.518Z,16.50
2018-12-17T16:42:42.757Z,21.10
2018-12-17T16:43:42.918Z,19.90
2018-12-17T16:44:43.103Z,17.80
2018-12-17T16:45:43.233Z,16.10
2018-12-17T16:46:43.418Z,17.40
2018-12-17T16:47:43.559Z,18.10
2018-12-17T16:48:43.799Z,21.30
2018-12-17T16:49:43.903Z,38.60
2018-12-17T16:50:44.156Z,36.70
2018-12-17T16:51:44.234Z,19.90
2018-12-17T16:52:44.447Z,22.60
2018-12-17T16:53:44.586Z,21.50
2018-12-17T16:54:44.744Z,17.90
2018-12-17T16:55:44.898Z,15.40
2018-12-17T16:56:45.026Z,15.90
2018-12-17T16:57:45.142Z,15.70
2018-12-17T16:58:45.402Z,14.80
2018-12-17T16:59:45.549Z,15.40
2018-12-17T17:00:45.660Z,14.90
2018-12-17T17:01:45.816Z,15.40
2018-12-17T17:02:46.012Z,15.40
2018-12-17T17:03:46.154Z,14.80
2018-12-17T17:04:46.303Z,14.80
2018-12-17T17:05:46.514Z,15.40
2018-12-17T17:06:46.606Z,14.60
2018-12-17T17:07:46.788Z,14.50
2018-12-17T17:08:46.973Z,15.10
2018-12-17T17:09:47.156Z,14.50
2018-12-17T17:10:47.408Z,15.20
2018-12-17T17:11:47.490Z,15.20
2018-12-17T17:12:47.621Z,14.70
2018-12-17T17:13:47.802Z,15.20
2018-12-17T17:14:48.410Z,15.30
2018-12-17T17:15:48.123Z,15.20
2018-12-17T17:16:48.292Z,15.30
2018-12-17T17:17:48.484Z,15.10
2018-12-17T17:18:48.672Z,15.90
2018-12-17T17:19:51.009Z,15.50
2018-12-17T17:20:48.958Z,15.90
2018-12-17T17:21:49.096Z,15.50
2018-12-17T17:22:49.256Z,15.20
2018-12-17T17:23:49.388Z,15.40
2018-12-17T17:24:49.603Z,15.70
2018-12-17T17:25:49.742Z,15.80
2018-12-17T17:26:49.938Z,15.80
2018-12-17T17:27:50.004Z,15.70
2018-12-17T17:28:50.186Z,16.50
2018-12-17T17:29:50.498Z,16.30
2018-12-17T17:30:50.577Z,15.60
2018-12-17T17:31:50.828Z,16.00
2018-12-17T17:32:50.941Z,15.70
2018-12-17T17:33:51.070Z,15.80
2018-12-17T17:34:51.263Z,16.00
2018-12-17T17:35:51.427Z,15.10
2018-12-17T17:36:51.565Z,15.70
2018-12-17T17:37:51.700Z,16.10
2018-12-17T17:38:51.917Z,15.50
2018-12-17T17:39:52.067Z,16.80
2018-12-17T17:40:52.278Z,15.90
2018-12-17T17:41:52.453Z,15.50
2018-12-17T17:42:52.606Z,14.80
2018-12-17T17:43:52.745Z,16.00
2018-12-17T17:44:52.902Z,16.00
2018-12-17T17:45:53.060Z,16.30
2018-12-17T17:46:53.236Z,15.40
2018-12-17T17:47:53.400Z,14.90
2018-12-17T17:48:53.591Z,15.00
2018-12-17T17:49:53.728Z,15.20
2018-12-17T17:50:53.816Z,15.80
2018-12-17T17:51:54.041Z,15.20
2018-12-17T17:52:54.162Z,15.50
2018-12-17T17:53:54.317Z,16.20
2018-12-17T17:54:54.451Z,14.80
2018-12-17T17:55:54.649Z,14.90
2018-12-17T17:56:54.782Z,15.30
2018-12-17T17:57:54.921Z,15.70
2018-12-17T17:58:59.754Z,15.00
2018-12-17T19:29:43.517Z,17.50
2018-12-17T19:36:57.029Z,17.00
